Paxton, South Dakota
Current Conditions -  °F | °C
As of 4:53 AM on Thursday 23 Oct 2014 (Local Time) from KICR Reporting Station
Clear Clear  
Wind Chill: 50°   Ceiling: Unl
Heat Index: 50°   Visibility: 10mi
Dew Point: 41°   Wind: 10mph
Humidity: 71%   Direction: 210°SSW
Pressure: 30"   Gusts: NA
Location:  43.2341°N, 99.5045°W
Report Text: KICR 230953Z AUTO 21009KT 10SM CLR 10/05 A3000 RMK AO2 SLP158 T01000050
Loading
Personal Weather Stations






























Interactive Weather Map
Tropical Storm Tracking
New forecast layout! Learn more

10-Day Weather Forecast

Advertisements
Track Severe Weather on mobile